Time;durP1;ratioP1;P1;durP2;ratioP2;P2;SDS_P1;SDS_P2;PMS_P1;PMS_P2;Temp;Humidity;BMP_temperature;BMP_pressure;BME280_temperature;BME280_humidity;BME280_pressure;Samples;Min_cycle;Max_cycle;Signal;HPM_P1;HPM_P2
2023/07/04 00:01:01;;;;;;;0.00;0.00;;;16.80;99.90;;;;;;5052346;28;20181;-60
2023/07/04 00:03:28;;;;;;;0.00;0.00;;;16.80;99.90;;;;;;5051919;28;20173;-60
2023/07/04 00:05:55;;;;;;;0.00;0.00;;;16.80;99.90;;;;;;5052274;28;20166;-60
2023/07/04 00:08:22;;;;;;;0.00;0.00;;;16.80;99.90;;;;;;5051926;28;20584;-60
2023/07/04 00:10:50;;;;;;;0.00;0.00;;;16.80;99.90;;;;;;5051682;28;20174;-60
2023/07/04 00:13:17;;;;;;;0.00;0.00;;;16.70;99.90;;;;;;5051901;28;20185;-60
2023/07/04 00:15:48;;;;;;;0.10;0.10;;;16.80;99.90;;;;;;5051381;28;20660;-60
2023/07/04 00:18:14;;;;;;;0.00;0.00;;;16.80;99.90;;;;;;5051392;28;20248;-60
2023/07/04 00:20:40;;;;;;;0.00;0.00;;;16.80;99.90;;;;;;5051544;28;20169;-61
2023/07/04 00:23:06;;;;;;;0.00;0.00;;;16.80;99.90;;;;;;5051502;28;20186;-60
2023/07/04 00:25:33;;;;;;;0.00;0.00;;;16.70;99.90;;;;;;5051510;28;20180;-60
2023/07/04 00:28:05;;;;;;;0.00;0.00;;;16.70;99.90;;;;;;5051593;28;20224;-60
2023/07/04 00:30:34;;;;;;;0.00;0.00;;;16.70;99.90;;;;;;5051744;28;20212;-60
2023/07/04 00:32:59;;;;;;;0.00;0.00;;;16.60;99.90;;;;;;5051474;28;20188;-60
2023/07/04 00:35:25;;;;;;;0.00;0.00;;;16.70;99.90;;;;;;5050813;28;20260;-60
2023/07/04 00:37:51;;;;;;;0.00;0.00;;;16.60;99.90;;;;;;5051301;28;20219;-60
2023/07/04 00:40:17;;;;;;;0.00;0.00;;;16.60;99.90;;;;;;5049779;28;20177;-60
2023/07/04 00:42:45;;;;;;;0.00;0.00;;;16.60;99.90;;;;;;5051484;28;20633;-60
2023/07/04 00:45:19;;;;;;;0.00;0.00;;;16.60;99.90;;;;;;5049862;28;20598;-60
2023/07/04 00:47:53;;;;;;;0.00;0.00;;;16.70;99.90;;;;;;5046793;28;20197;-60
2023/07/04 00:50:23;;;;;;;0.00;0.00;;;16.70;99.90;;;;;;5050698;28;20184;-60
2023/07/04 00:52:49;;;;;;;0.00;0.00;;;16.70;99.90;;;;;;5049720;28;20660;-60
2023/07/04 00:55:15;;;;;;;0.00;0.00;;;16.70;99.90;;;;;;5050780;28;20687;-60
2023/07/04 00:57:41;;;;;;;0.00;0.00;;;16.70;99.90;;;;;;5050945;28;20217;-60
2023/07/04 01:00:24;;;;;;;0.00;0.00;;;16.70;99.90;;;;;;5050798;28;20537;-60
2023/07/04 01:02:52;;;;;;;0.00;0.00;;;16.70;99.90;;;;;;5037024;28;20262;-60
2023/07/04 01:05:26;;;;;;;0.00;0.00;;;16.60;99.90;;;;;;5051130;28;20181;-60
2023/07/04 01:08:15;;;;;;;0.00;0.00;;;16.60;99.90;;;;;;5050316;28;20177;-60
2023/07/04 01:10:44;;;;;;;0.00;0.00;;;16.60;99.90;;;;;;5050603;28;20178;-60
2023/07/04 01:13:36;;;;;;;0.00;0.00;;;16.60;99.90;;;;;;5051088;28;20272;-60
2023/07/04 01:16:04;;;;;;;0.00;0.00;;;16.60;99.90;;;;;;5050805;28;20227;-60
2023/07/04 01:18:30;;;;;;;0.00;0.00;;;16.60;99.90;;;;;;5050958;28;20263;-60
2023/07/04 01:20:58;;;;;;;0.00;0.00;;;16.60;99.90;;;;;;5051047;28;20209;-60
2023/07/04 01:23:42;;;;;;;0.00;0.00;;;16.60;99.90;;;;;;5049326;28;20644;-60
2023/07/04 01:26:25;;;;;;;0.40;0.40;;;16.60;99.90;;;;;;5050758;28;20189;-61
2023/07/04 01:28:53;;;;;;;0.00;0.00;;;16.60;99.90;;;;;;5050449;28;20731;-60
2023/07/04 01:31:25;;;;;;;0.00;0.00;;;16.50;99.90;;;;;;5050862;28;20193;-61
2023/07/04 01:33:51;;;;;;;0.00;0.00;;;16.50;99.90;;;;;;5050629;28;20181;-60
2023/07/04 01:36:20;;;;;;;0.00;0.00;;;16.50;99.90;;;;;;5050536;28;20181;-60
2023/07/04 01:38:45;;;;;;;0.00;0.00;;;16.40;99.90;;;;;;5050715;28;20293;-60
2023/07/04 01:41:12;;;;;;;0.00;0.00;;;16.30;99.90;;;;;;5050750;28;20289;-60
2023/07/04 01:43:38;;;;;;;0.00;0.00;;;16.30;99.90;;;;;;5050643;28;20194;-60
2023/07/04 01:46:03;;;;;;;0.00;0.00;;;16.30;99.90;;;;;;5049675;28;20247;-60
2023/07/04 01:48:29;;;;;;;0.00;0.00;;;16.30;99.90;;;;;;5050236;28;20242;-60
2023/07/04 01:50:54;;;;;;;0.00;0.00;;;16.20;99.90;;;;;;5050698;28;20235;-60
2023/07/04 01:53:20;;;;;;;0.00;0.00;;;16.20;99.90;;;;;;5054710;28;20204;-60
2023/07/04 01:55:46;;;;;;;0.00;0.00;;;16.20;99.90;;;;;;5054412;28;20216;-60
2023/07/04 01:58:11;;;;;;;0.00;0.00;;;16.20;99.90;;;;;;5052919;28;20221;-60
2023/07/04 02:00:38;;;;;;;0.00;0.00;;;16.20;99.90;;;;;;5053741;28;20192;-60
2023/07/04 02:03:04;;;;;;;0.00;0.00;;;16.10;99.90;;;;;;5054647;28;20243;-60
2023/07/04 02:05:30;;;;;;;0.00;0.00;;;16.10;99.90;;;;;;5034625;28;20239;-60
2023/07/04 02:07:55;;;;;;;0.05;0.05;;;16.10;99.90;;;;;;5034931;28;20190;-60
2023/07/04 02:10:21;;;;;;;0.00;0.00;;;16.00;99.90;;;;;;5034652;28;20185;-60
2023/07/04 02:12:47;;;;;;;0.00;0.00;;;16.00;99.90;;;;;;5041993;28;20269;-60
2023/07/04 02:15:13;;;;;;;0.00;0.00;;;16.00;99.90;;;;;;5053607;28;20660;-60
2023/07/04 02:17:38;;;;;;;0.00;0.00;;;16.00;99.90;;;;;;5054164;28;20248;-60
2023/07/04 02:20:05;;;;;;;0.00;0.00;;;16.00;99.90;;;;;;5053341;28;20184;-60
2023/07/04 02:22:31;;;;;;;0.00;0.00;;;16.00;99.90;;;;;;5053722;28;20671;-60
2023/07/04 02:24:57;;;;;;;0.00;0.00;;;15.90;99.90;;;;;;5054085;28;20636;-60
2023/07/04 02:27:22;;;;;;;0.00;0.00;;;15.90;99.90;;;;;;5053852;28;20236;-60
2023/07/04 02:29:48;;;;;;;0.00;0.00;;;15.90;99.90;;;;;;5052822;28;20236;-60
2023/07/04 02:32:14;;;;;;;0.00;0.00;;;15.90;99.90;;;;;;5054085;28;20191;-60
2023/07/04 02:34:39;;;;;;;0.00;0.00;;;15.80;99.90;;;;;;5053738;28;20177;-60
2023/07/04 02:37:05;;;;;;;0.00;0.00;;;15.80;99.90;;;;;;5053723;28;20205;-60
2023/07/04 02:39:31;;;;;;;0.00;0.00;;;15.80;99.90;;;;;;5053799;28;20327;-60
2023/07/04 02:41:57;;;;;;;0.00;0.00;;;15.70;99.90;;;;;;5054232;28;20161;-60
2023/07/04 02:44:22;;;;;;;0.00;0.00;;;15.80;99.90;;;;;;5053819;28;20188;-60
2023/07/04 02:46:48;;;;;;;0.00;0.00;;;15.70;99.90;;;;;;5053697;28;20172;-60
2023/07/04 02:49:14;;;;;;;0.00;0.00;;;15.70;99.90;;;;;;5052559;28;20181;-60
2023/07/04 02:51:39;;;;;;;0.00;0.00;;;15.70;99.90;;;;;;5053222;28;20256;-60
2023/07/04 02:54:05;;;;;;;0.00;0.00;;;15.70;99.90;;;;;;5052542;28;20195;-60
2023/07/04 02:56:31;;;;;;;0.00;0.00;;;15.70;99.90;;;;;;5052898;28;20280;-60
2023/07/04 02:58:57;;;;;;;0.08;0.08;;;15.70;99.90;;;;;;5049927;28;20218;-59
2023/07/04 03:01:22;;;;;;;0.00;0.00;;;15.60;99.90;;;;;;5047228;28;20188;-60
2023/07/04 03:03:48;;;;;;;0.00;0.00;;;15.70;99.90;;;;;;5050288;28;20196;-60
2023/07/04 03:06:13;;;;;;;0.00;0.00;;;15.60;99.90;;;;;;5053275;28;20690;-60
2023/07/04 03:08:39;;;;;;;0.00;0.00;;;15.60;99.90;;;;;;5052837;28;20239;-60
2023/07/04 03:11:04;;;;;;;0.00;0.00;;;15.60;99.90;;;;;;5052716;28;20182;-60
2023/07/04 03:13:31;;;;;;;0.00;0.00;;;15.50;99.90;;;;;;5052630;28;20581;-60
2023/07/04 03:15:57;;;;;;;0.00;0.00;;;15.50;99.90;;;;;;5052815;28;20235;-61
2023/07/04 03:18:23;;;;;;;0.00;0.00;;;15.50;99.90;;;;;;5053044;28;20679;-60
2023/07/04 03:20:48;;;;;;;0.00;0.00;;;15.50;99.90;;;;;;5052305;28;20185;-60
2023/07/04 03:23:14;;;;;;;0.00;0.00;;;15.50;99.90;;;;;;5052933;28;20193;-60
2023/07/04 03:25:39;;;;;;;0.00;0.00;;;15.50;99.90;;;;;;5052298;28;20189;-60
2023/07/04 03:28:05;;;;;;;0.00;0.00;;;15.50;99.90;;;;;;5050522;28;20228;-60
2023/07/04 03:30:30;;;;;;;0.00;0.00;;;15.50;99.90;;;;;;5051237;28;20177;-60
2023/07/04 03:32:56;;;;;;;0.00;0.00;;;15.50;99.90;;;;;;5052622;28;20534;-60
2023/07/04 03:35:21;;;;;;;0.00;0.00;;;15.50;99.90;;;;;;5052521;28;20169;-59
2023/07/04 03:37:47;;;;;;;0.00;0.00;;;15.50;99.90;;;;;;5051877;28;20296;-58
2023/07/04 03:40:13;;;;;;;0.00;0.00;;;15.50;99.90;;;;;;5051169;28;20185;-59
2023/07/04 03:42:39;;;;;;;0.00;0.00;;;15.50;99.90;;;;;;5052098;28;20169;-60
2023/07/04 03:45:06;;;;;;;0.00;0.00;;;15.50;99.90;;;;;;5051485;28;20231;-59
2023/07/04 03:47:32;;;;;;;0.00;0.00;;;15.60;99.90;;;;;;5049989;28;20209;-61
2023/07/04 03:49:57;;;;;;;0.00;0.00;;;15.60;99.90;;;;;;5050406;28;20165;-62
2023/07/04 03:52:23;;;;;;;0.38;0.38;;;15.60;99.90;;;;;;5051182;28;20178;-64
2023/07/04 03:54:48;;;;;;;0.00;0.00;;;15.70;99.90;;;;;;5050924;28;20470;-65
2023/07/04 03:57:14;;;;;;;0.00;0.00;;;15.70;99.90;;;;;;5051736;28;20270;-64
2023/07/04 03:59:39;;;;;;;0.00;0.00;;;15.80;99.90;;;;;;5051041;28;20535;-61
2023/07/04 04:02:05;;;;;;;0.00;0.00;;;15.80;99.90;;;;;;5051626;28;20261;-63
2023/07/04 04:04:36;;;;;;;0.00;0.00;;;15.80;99.90;;;;;;5050893;28;20255;-62
2023/07/04 04:07:02;;;;;;;0.00;0.00;;;15.90;99.90;;;;;;5050250;28;21189;-60
2023/07/04 04:09:27;;;;;;;0.00;0.00;;;15.90;99.90;;;;;;5050804;28;20235;-60
2023/07/04 04:11:53;;;;;;;0.00;0.00;;;16.00;99.90;;;;;;5051659;28;20174;-61
2023/07/04 04:14:18;;;;;;;0.00;0.00;;;16.00;99.90;;;;;;5050152;28;20188;-61
2023/07/04 04:16:44;;;;;;;0.00;0.00;;;16.10;99.90;;;;;;5049831;28;20637;-61
2023/07/04 04:19:09;;;;;;;0.00;0.00;;;16.10;99.90;;;;;;5051430;28;20225;-61
2023/07/04 04:21:35;;;;;;;0.00;0.00;;;16.20;99.90;;;;;;5051588;28;20527;-61
2023/07/04 04:24:00;;;;;;;0.00;0.00;;;16.30;99.90;;;;;;5051524;28;20192;-61
2023/07/04 04:26:27;;;;;;;0.00;0.00;;;16.40;99.90;;;;;;5051760;28;20177;-61
2023/07/04 04:28:55;;;;;;;0.00;0.00;;;16.60;99.90;;;;;;5051065;28;20335;-61
2023/07/04 04:31:21;;;;;;;0.00;0.00;;;16.70;99.90;;;;;;5051537;28;20181;-61
2023/07/04 04:33:47;;;;;;;0.00;0.00;;;16.90;99.90;;;;;;5051389;28;20520;-62
2023/07/04 04:36:17;;;;;;;0.00;0.00;;;17.10;99.90;;;;;;5051350;28;20260;-61
2023/07/04 04:38:43;;;;;;;0.00;0.00;;;17.30;99.90;;;;;;5051223;28;20241;-61
2023/07/04 04:41:09;;;;;;;0.00;0.00;;;17.40;99.90;;;;;;5051346;28;20250;-61
2023/07/04 04:43:34;;;;;;;0.00;0.00;;;17.50;99.90;;;;;;5051100;28;20180;-61
2023/07/04 04:46:01;;;;;;;0.00;0.00;;;17.80;99.90;;;;;;5051239;28;20261;-62
2023/07/04 04:48:29;;;;;;;0.00;0.00;;;18.10;99.90;;;;;;5051194;28;20644;-61
2023/07/04 04:51:00;;;;;;;0.00;0.00;;;18.40;99.90;;;;;;5050995;28;20580;-61
2023/07/04 04:53:26;;;;;;;0.00;0.00;;;18.70;99.90;;;;;;5051058;28;20170;-61
2023/07/04 04:55:52;;;;;;;0.00;0.00;;;19.00;99.90;;;;;;5051048;28;20632;-61
2023/07/04 04:58:18;;;;;;;0.00;0.00;;;19.30;99.90;;;;;;5051156;28;20240;-61
2023/07/04 05:00:44;;;;;;;0.00;0.00;;;19.60;99.90;;;;;;5051093;28;20184;-61
2023/07/04 05:03:13;;;;;;;0.00;0.00;;;19.90;99.90;;;;;;5051041;28;20219;-61
2023/07/04 05:05:39;;;;;;;0.00;0.00;;;20.20;99.90;;;;;;5051061;28;20633;-61
2023/07/04 05:08:04;;;;;;;0.00;0.00;;;20.50;99.90;;;;;;5050975;28;20184;-61
2023/07/04 05:10:30;;;;;;;0.00;0.00;;;20.80;99.90;;;;;;5050909;28;20201;-61
2023/07/04 05:12:57;;;;;;;0.00;0.00;;;21.20;99.90;;;;;;5050942;28;20181;-62
2023/07/04 05:15:23;;;;;;;0.00;0.00;;;21.50;99.90;;;;;;5050903;28;20186;-61
2023/07/04 05:17:49;;;;;;;0.00;0.00;;;21.90;99.90;;;;;;5050779;28;20209;-61
2023/07/04 05:20:18;;;;;;;0.00;0.00;;;22.30;99.90;;;;;;5050324;28;20181;-61
2023/07/04 05:22:45;;;;;;;0.00;0.00;;;22.60;99.90;;;;;;5050665;28;20173;-61
2023/07/04 05:25:11;;;;;;;0.00;0.00;;;22.90;99.30;;;;;;5050432;28;20481;-61
2023/07/04 05:27:37;;;;;;;0.00;0.00;;;23.10;98.90;;;;;;5050677;28;20753;-61
2023/07/04 05:30:03;;;;;;;0.00;0.00;;;23.50;98.10;;;;;;5050952;28;20216;-61
2023/07/04 05:32:30;;;;;;;0.00;0.00;;;23.80;97.60;;;;;;5050763;28;20263;-61
2023/07/04 05:34:55;;;;;;;0.00;0.00;;;24.20;96.90;;;;;;5050900;28;20223;-61
2023/07/04 05:37:21;;;;;;;0.15;0.13;;;24.60;96.00;;;;;;5050699;28;20276;-60
2023/07/04 05:39:47;;;;;;;0.00;0.00;;;24.90;95.50;;;;;;5050718;28;20648;-58
2023/07/04 05:42:12;;;;;;;0.00;0.00;;;25.10;95.00;;;;;;5049371;28;20235;-59
2023/07/04 05:44:38;;;;;;;0.00;0.00;;;25.30;94.50;;;;;;5050846;28;20185;-60
2023/07/04 05:47:03;;;;;;;0.00;0.00;;;25.50;94.00;;;;;;5050719;28;20202;-60
2023/07/04 05:49:29;;;;;;;0.00;0.00;;;25.60;93.60;;;;;;5050722;28;20183;-60
2023/07/04 05:51:55;;;;;;;0.00;0.00;;;25.40;93.90;;;;;;5049536;28;20212;-60
2023/07/04 05:54:20;;;;;;;0.00;0.00;;;25.30;94.30;;;;;;5050637;28;20177;-60
2023/07/04 05:56:51;;;;;;;0.00;0.00;;;24.80;94.70;;;;;;5050583;28;20177;-60
2023/07/04 05:59:17;;;;;;;0.00;0.00;;;24.40;95.40;;;;;;5050390;28;20193;-60
2023/07/04 06:01:45;;;;;;;0.00;0.00;;;24.40;96.20;;;;;;5050572;28;20181;-60
2023/07/04 06:04:11;;;;;;;0.00;0.00;;;24.50;96.10;;;;;;5050446;28;20208;-60
2023/07/04 06:06:41;;;;;;;0.00;0.00;;;24.60;96.20;;;;;;5050522;28;20182;-60
2023/07/04 06:09:10;;;;;;;0.00;0.00;;;24.90;95.90;;;;;;5050436;28;20212;-61
2023/07/04 06:11:39;;;;;;;0.00;0.00;;;25.30;95.80;;;;;;5050450;28;20188;-60
2023/07/04 06:14:06;;;;;;;0.00;0.00;;;25.80;95.20;;;;;;5050482;28;20262;-61
2023/07/04 06:16:33;;;;;;;0.00;0.00;;;26.50;94.10;;;;;;5050192;28;20189;-60
2023/07/04 06:18:59;;;;;;;0.00;0.00;;;26.40;92.90;;;;;;5050499;28;20209;-61
2023/07/04 06:21:26;;;;;;;0.00;0.00;;;26.00;93.00;;;;;;5050378;28;20296;-60
2023/07/04 06:23:54;;;;;;;0.00;0.00;;;25.60;94.00;;;;;;5050334;28;20582;-61
2023/07/04 06:26:20;;;;;;;0.00;0.00;;;25.00;94.20;;;;;;5050306;28;20181;-60
2023/07/04 06:28:47;;;;;;;0.00;0.00;;;24.60;95.50;;;;;;5050342;28;20228;-60
2023/07/04 06:31:14;;;;;;;0.00;0.00;;;24.50;95.10;;;;;;5050298;28;20177;-61
2023/07/04 06:33:40;;;;;;;0.00;0.00;;;24.10;95.50;;;;;;5050316;28;20212;-60
2023/07/04 06:36:11;;;;;;;0.00;0.00;;;23.90;95.70;;;;;;5050310;28;20184;-60
2023/07/04 06:38:37;;;;;;;0.00;0.00;;;23.60;96.40;;;;;;5052853;28;20212;-60
2023/07/04 06:41:08;;;;;;;0.00;0.00;;;23.70;96.50;;;;;;5053901;28;20256;-60
2023/07/04 06:43:34;;;;;;;0.00;0.00;;;24.10;96.60;;;;;;5053607;28;20261;-60
2023/07/04 06:46:00;;;;;;;0.00;0.00;;;24.90;96.90;;;;;;5053809;28;20231;-60
2023/07/04 06:48:27;;;;;;;0.00;0.00;;;25.70;94.50;;;;;;5053693;28;20165;-60
2023/07/04 06:50:59;;;;;;;0.05;0.05;;;25.80;93.60;;;;;;5053487;28;20177;-60
2023/07/04 06:53:26;;;;;;;0.00;0.00;;;25.70;93.20;;;;;;5053593;28;20264;-60
2023/07/04 06:55:52;;;;;;;0.00;0.00;;;25.20;93.30;;;;;;5053501;28;20170;-60
2023/07/04 06:58:18;;;;;;;0.00;0.00;;;25.10;94.40;;;;;;5053449;28;20209;-60
2023/07/04 07:00:44;;;;;;;0.00;0.00;;;25.40;93.30;;;;;;5053583;28;20172;-60
2023/07/04 07:03:09;;;;;;;0.00;0.00;;;25.30;93.20;;;;;;5053505;28;20177;-60
2023/07/04 07:05:41;;;;;;;0.00;0.00;;;25.40;93.20;;;;;;5052194;28;20261;-60
2023/07/04 07:08:07;;;;;;;0.00;0.00;;;25.80;92.90;;;;;;5053491;28;20170;-60
2023/07/04 07:10:36;;;;;;;0.00;0.00;;;26.40;90.70;;;;;;5053308;28;20180;-60
2023/07/04 07:13:03;;;;;;;0.00;0.00;;;26.60;89.40;;;;;;5053431;28;20204;-60
2023/07/04 07:15:29;;;;;;;0.00;0.00;;;26.70;87.30;;;;;;5053186;28;20182;-60
2023/07/04 07:17:54;;;;;;;0.00;0.00;;;26.50;85.40;;;;;;5053264;28;20219;-61
2023/07/04 07:20:20;;;;;;;0.00;0.00;;;26.40;86.90;;;;;;5053185;28;20193;-60
2023/07/04 07:22:46;;;;;;;0.00;0.00;;;26.80;86.00;;;;;;5053371;28;20528;-61
2023/07/04 07:25:11;;;;;;;0.00;0.00;;;27.20;85.00;;;;;;5053252;28;20182;-60
2023/07/04 07:27:37;;;;;;;0.00;0.00;;;27.50;82.80;;;;;;5053087;28;20229;-61
2023/07/04 07:30:04;;;;;;;0.00;0.00;;;27.90;78.80;;;;;;5053231;28;20211;-61
2023/07/04 07:32:30;;;;;;;0.00;0.00;;;28.50;76.70;;;;;;5053132;28;20231;-61
2023/07/04 07:34:56;;;;;;;0.00;0.00;;;28.80;75.50;;;;;;5053180;28;20173;-60
2023/07/04 07:37:22;;;;;;;0.00;0.00;;;28.60;74.60;;;;;;5052899;28;20213;-60
2023/07/04 07:39:50;;;;;;;0.10;0.10;;;28.60;75.20;;;;;;5053052;28;20173;-61
2023/07/04 07:42:16;;;;;;;0.00;0.00;;;28.50;75.00;;;;;;5053010;28;20268;-61
2023/07/04 07:44:42;;;;;;;0.00;0.00;;;28.80;73.10;;;;;;5052954;28;20173;-61
2023/07/04 07:47:10;;;;;;;0.00;0.00;;;29.00;71.60;;;;;;5052928;28;20716;-61
2023/07/04 07:49:36;;;;;;;0.00;0.00;;;28.80;71.70;;;;;;5052752;28;20184;-61
2023/07/04 07:52:01;;;;;;;0.10;0.10;;;28.80;70.50;;;;;;5052934;28;20301;-61
2023/07/04 07:54:27;;;;;;;0.00;0.00;;;28.70;69.90;;;;;;5052596;28;20675;-61
2023/07/04 07:56:53;;;;;;;0.00;0.00;;;28.70;70.70;;;;;;5052617;28;20310;-61
2023/07/04 07:59:20;;;;;;;0.00;0.00;;;29.30;68.80;;;;;;5052346;28;20205;-59
2023/07/04 08:01:46;;;;;;;0.00;0.00;;;29.20;64.80;;;;;;5052493;28;20196;-59
2023/07/04 08:04:12;;;;;;;0.00;0.00;;;29.20;64.80;;;;;;5052303;28;20640;-59
2023/07/04 08:06:41;;;;;;;0.00;0.00;;;29.70;63.90;;;;;;5052335;28;20173;-59
2023/07/04 08:09:10;;;;;;;0.00;0.00;;;29.80;62.80;;;;;;5052524;28;20264;-59
2023/07/04 08:11:37;;;;;;;0.00;0.00;;;29.40;61.40;;;;;;5052180;28;20181;-59
2023/07/04 08:14:02;;;;;;;0.00;0.00;;;29.10;63.70;;;;;;5052165;28;20177;-59
2023/07/04 08:16:39;;;;;;;0.00;0.00;;;29.20;63.00;;;;;;5051996;28;20176;-59
2023/07/04 08:19:04;;;;;;;0.00;0.00;;;29.10;61.50;;;;;;5052063;28;20237;-59
2023/07/04 08:21:30;;;;;;;0.00;0.00;;;28.90;62.60;;;;;;5051902;28;20582;-59
2023/07/04 08:23:55;;;;;;;0.00;0.00;;;29.10;62.30;;;;;;5052049;28;20165;-59
2023/07/04 08:26:24;;;;;;;0.00;0.00;;;28.70;59.90;;;;;;5051837;28;20178;-59
2023/07/04 08:28:53;;;;;;;0.10;0.10;;;28.40;59.80;;;;;;5051839;28;20228;-60
2023/07/04 08:31:19;;;;;;;0.00;0.00;;;28.90;61.30;;;;;;5051926;28;20185;-59
2023/07/04 08:33:46;;;;;;;0.00;0.00;;;29.20;60.60;;;;;;5051874;28;20173;-60
2023/07/04 08:36:12;;;;;;;0.00;0.00;;;29.60;59.60;;;;;;5051700;28;20177;-60
2023/07/04 08:38:38;;;;;;;0.00;0.00;;;29.70;59.30;;;;;;5051652;28;20312;-60
2023/07/04 08:41:17;;;;;;;0.00;0.00;;;30.10;56.90;;;;;;5051858;28;20256;-60
2023/07/04 08:43:50;;;;;;;0.00;0.00;;;30.50;57.00;;;;;;5051712;28;20176;-60
2023/07/04 08:46:19;;;;;;;0.00;0.00;;;30.70;55.30;;;;;;5051691;28;20188;-60
2023/07/04 08:48:45;;;;;;;0.35;0.10;;;30.40;55.40;;;;;;5051673;28;20173;-60
2023/07/04 08:51:22;;;;;;;0.00;0.00;;;30.20;55.90;;;;;;5051438;28;20209;-60
2023/07/04 08:53:53;;;;;;;0.00;0.00;;;30.00;55.50;;;;;;5051599;28;20231;-60
2023/07/04 08:56:31;;;;;;;0.03;0.03;;;29.90;55.60;;;;;;5051450;28;20169;-60
2023/07/04 08:59:05;;;;;;;0.00;0.00;;;30.30;55.50;;;;;;5051489;28;20213;-60
2023/07/04 09:01:56;;;;;;;0.00;0.00;;;30.10;55.20;;;;;;5051094;28;20209;-60
2023/07/04 09:04:35;;;;;;;0.00;0.00;;;30.10;55.20;;;;;;5051545;28;20648;-60
2023/07/04 09:07:26;;;;;;;0.00;0.00;;;29.60;55.70;;;;;;5051652;28;20183;-60
2023/07/04 09:10:16;;;;;;;0.00;0.00;;;29.30;55.10;;;;;;5051465;28;20173;-60
2023/07/04 09:12:43;;;;;;;0.00;0.00;;;29.60;55.90;;;;;;5051411;28;20177;-60
2023/07/04 09:15:26;;;;;;;0.03;0.03;;;29.90;55.10;;;;;;5051528;28;20335;-60
2023/07/04 09:18:05;;;;;;;0.00;0.00;;;29.60;54.20;;;;;;5050137;28;20212;-59
2023/07/04 09:20:35;;;;;;;0.10;0.10;;;29.40;54.50;;;;;;5051414;28;20551;-60
2023/07/04 09:23:22;;;;;;;0.00;0.00;;;29.20;54.60;;;;;;5051403;28;20198;-60
2023/07/04 09:25:49;;;;;;;0.17;0.17;;;29.50;55.80;;;;;;5051296;28;20181;-60
2023/07/04 09:28:15;;;;;;;0.30;0.30;;;29.10;54.40;;;;;;5051057;28;20229;-60
2023/07/04 09:30:40;;;;;;;0.00;0.00;;;29.10;54.60;;;;;;5051251;28;20186;-59
2023/07/04 09:33:06;;;;;;;0.35;0.05;;;29.30;55.20;;;;;;5051407;28;20220;-59
2023/07/04 09:35:32;;;;;;;0.00;0.00;;;28.80;52.70;;;;;;5051027;28;20165;-60
2023/07/04 09:38:02;;;;;;;0.00;0.00;;;28.30;54.50;;;;;;5051119;28;20700;-60
2023/07/04 09:40:46;;;;;;;0.00;0.00;;;27.90;55.30;;;;;;5051234;28;20636;-60
2023/07/04 09:43:31;;;;;;;0.00;0.00;;;28.20;56.20;;;;;;5050959;28;20185;-60
2023/07/04 09:46:16;;;;;;;0.00;0.00;;;27.70;55.70;;;;;;5049985;28;20192;-60
2023/07/04 09:48:41;;;;;;;0.00;0.00;;;27.50;57.70;;;;;;5051145;28;20578;-60
2023/07/04 09:51:23;;;;;;;0.00;0.00;;;27.70;57.20;;;;;;5051246;28;20212;-60
2023/07/04 09:53:49;;;;;;;0.00;0.00;;;28.00;55.30;;;;;;5051061;28;20720;-60
2023/07/04 09:56:26;;;;;;;0.00;0.00;;;28.20;54.70;;;;;;5050830;28;20272;-59
2023/07/04 09:59:26;;;;;;;0.63;0.50;;;28.50;54.60;;;;;;5050904;28;20578;-59
2023/07/04 10:02:10;;;;;;;0.03;0.03;;;28.80;54.80;;;;;;5048743;28;20194;-59
2023/07/04 10:04:37;;;;;;;0.20;0.10;;;29.20;53.70;;;;;;5050923;28;20552;-59
2023/07/04 10:07:12;;;;;;;0.00;0.00;;;29.30;52.70;;;;;;5051050;28;20623;-59
2023/07/04 10:09:44;;;;;;;0.00;0.00;;;29.40;51.20;;;;;;5050952;28;20169;-59
2023/07/04 10:12:14;;;;;;;0.00;0.00;;;29.50;50.70;;;;;;5051545;28;20585;-59
2023/07/04 10:14:46;;;;;;;0.00;0.00;;;29.60;52.50;;;;;;5054864;28;20184;-59
2023/07/04 10:17:22;;;;;;;0.00;0.00;;;29.40;52.00;;;;;;5054468;28;20188;-59
2023/07/04 10:19:50;;;;;;;0.10;0.10;;;29.40;51.60;;;;;;5054718;28;20185;-59
2023/07/04 10:22:29;;;;;;;0.00;0.00;;;29.40;51.00;;;;;;5054509;28;20181;-59
2023/07/04 10:24:55;;;;;;;0.22;0.22;;;29.60;48.50;;;;;;5054623;28;20299;-59
2023/07/04 10:27:29;;;;;;;0.00;0.00;;;29.30;49.60;;;;;;5054194;28;20296;-59
2023/07/04 10:29:58;;;;;;;0.03;0.03;;;29.30;50.30;;;;;;5054424;28;20644;-59
2023/07/04 10:32:24;;;;;;;0.40;0.40;;;29.60;50.70;;;;;;5054311;28;20182;-59
2023/07/04 10:34:50;;;;;;;0.00;0.00;;;29.90;49.30;;;;;;5054407;28;20540;-59
2023/07/04 10:37:21;;;;;;;0.00;0.00;;;29.80;49.00;;;;;;5054215;28;20255;-59
2023/07/04 10:39:47;;;;;;;0.05;0.00;;;29.90;48.90;;;;;;5054212;28;20174;-59
2023/07/04 10:42:23;;;;;;;0.00;0.00;;;30.00;47.80;;;;;;5054098;28;20174;-60
2023/07/04 10:44:54;;;;;;;0.00;0.00;;;30.10;47.10;;;;;;5054303;28;20181;-59
2023/07/04 10:47:25;;;;;;;0.00;0.00;;;30.40;46.70;;;;;;5054091;28;20637;-59
2023/07/04 10:49:58;;;;;;;0.00;0.00;;;30.80;45.40;;;;;;5054037;28;20633;-59
2023/07/04 10:52:30;;;;;;;0.00;0.00;;;30.90;44.50;;;;;;5054039;28;20185;-59
2023/07/04 10:54:58;;;;;;;0.00;0.00;;;30.40;45.30;;;;;;5054133;28;20238;-59
2023/07/04 10:57:41;;;;;;;0.00;0.00;;;30.10;46.20;;;;;;5052689;28;20248;-59
2023/07/04 11:00:22;;;;;;;0.00;0.00;;;30.10;46.20;;;;;;5054056;28;20184;-59
2023/07/04 11:02:55;;;;;;;0.10;0.10;;;30.30;46.00;;;;;;5053929;28;20174;-59
2023/07/04 11:05:51;;;;;;;0.00;0.00;;;30.20;44.60;;;;;;5053801;28;20185;-59
2023/07/04 11:08:21;;;;;;;0.00;0.00;;;30.30;45.20;;;;;;5053708;28;20227;-59
2023/07/04 11:10:56;;;;;;;0.00;0.00;;;30.20;44.70;;;;;;5053716;28;20169;-59
2023/07/04 11:13:24;;;;;;;0.00;0.00;;;30.30;44.50;;;;;;5053708;28;20215;-60
2023/07/04 11:16:03;;;;;;;0.00;0.00;;;30.50;44.60;;;;;;5053671;28;20246;-59
2023/07/04 11:18:32;;;;;;;0.00;0.00;;;30.60;44.40;;;;;;5053624;28;20212;-60
2023/07/04 11:21:13;;;;;;;0.00;0.00;;;30.60;44.60;;;;;;5053509;28;20174;-59
2023/07/04 11:23:52;;;;;;;0.00;0.00;;;30.60;44.60;;;;;;5053038;28;20264;-59
2023/07/04 11:26:19;;;;;;;0.00;0.00;;;30.40;43.70;;;;;;5053441;28;20172;-59
2023/07/04 11:29:06;;;;;;;0.00;0.00;;;29.90;44.40;;;;;;5053267;28;20291;-59
2023/07/04 11:31:31;;;;;;;0.00;0.00;;;29.70;41.80;;;;;;5053180;28;20181;-59
2023/07/04 11:33:57;;;;;;;0.00;0.00;;;29.70;42.90;;;;;;5053316;28;20182;-59
2023/07/04 11:36:29;;;;;;;0.10;0.10;;;29.70;44.00;;;;;;5053167;28;20201;-59
2023/07/04 11:39:03;;;;;;;0.00;0.00;;;29.80;43.20;;;;;;5053061;28;20217;-60
2023/07/04 11:41:37;;;;;;;0.20;0.20;;;29.70;43.20;;;;;;5053037;28;20534;-59
2023/07/04 11:44:12;;;;;;;0.00;0.00;;;29.90;44.00;;;;;;5053197;28;20180;-59
2023/07/04 11:46:39;;;;;;;0.00;0.00;;;30.30;42.60;;;;;;5053074;28;20663;-59
2023/07/04 11:49:19;;;;;;;0.00;0.00;;;30.30;42.40;;;;;;5053106;28;20644;-59
2023/07/04 11:51:45;;;;;;;0.00;0.00;;;30.30;44.00;;;;;;5053109;28;20188;-60
2023/07/04 11:54:12;;;;;;;0.00;0.00;;;30.20;43.00;;;;;;5052878;28;20259;-61
2023/07/04 11:56:42;;;;;;;0.00;0.00;;;30.00;43.20;;;;;;5052788;28;20271;-60
2023/07/04 11:59:20;;;;;;;0.15;0.15;;;30.20;44.40;;;;;;5052741;28;20681;-60
2023/07/04 12:01:52;;;;;;;0.00;0.00;;;30.50;43.10;;;;;;5052819;28;20557;-60
2023/07/04 12:04:32;;;;;;;0.00;0.00;;;30.40;43.10;;;;;;5052678;28;20185;-60
2023/07/04 12:07:16;;;;;;;0.00;0.00;;;29.90;43.60;;;;;;5052684;28;20177;-60
2023/07/04 12:09:50;;;;;;;0.08;0.08;;;29.80;44.10;;;;;;5052600;28;20524;-60
2023/07/04 12:12:19;;;;;;;1.23;0.75;;;29.90;44.50;;;;;;5052692;28;20671;-60
2023/07/04 12:14:48;;;;;;;0.00;0.00;;;29.90;44.70;;;;;;5052612;28;20181;-61
2023/07/04 12:17:14;;;;;;;0.00;0.00;;;30.10;43.90;;;;;;5052412;28;20181;-60
2023/07/04 12:19:41;;;;;;;0.00;0.00;;;30.40;43.50;;;;;;5052614;28;20201;-60
2023/07/04 12:22:12;;;;;;;0.00;0.00;;;30.30;43.40;;;;;;5052495;28;20181;-60
2023/07/04 12:24:38;;;;;;;0.00;0.00;;;30.00;44.30;;;;;;5052446;28;20637;-60
2023/07/04 12:27:04;;;;;;;0.00;0.00;;;30.30;44.90;;;;;;5052265;28;20177;-60
2023/07/04 12:29:29;;;;;;;0.00;0.00;;;30.70;44.70;;;;;;5052226;28;20205;-60
2023/07/04 12:32:07;;;;;;;0.00;0.00;;;30.90;44.20;;;;;;5052090;28;20249;-60
2023/07/04 12:34:33;;;;;;;0.20;0.10;;;30.70;43.40;;;;;;5051573;28;20169;-60
2023/07/04 12:37:02;;;;;;;0.00;0.00;;;30.50;43.70;;;;;;5051675;28;20268;-60
2023/07/04 12:39:29;;;;;;;0.00;0.00;;;30.30;43.90;;;;;;5051899;28;20296;-60
2023/07/04 12:41:55;;;;;;;0.00;0.00;;;30.40;44.50;;;;;;5052033;28;20174;-60
2023/07/04 12:44:21;;;;;;;0.00;0.00;;;30.30;43.00;;;;;;5051980;28;20178;-60
2023/07/04 12:46:47;;;;;;;0.35;0.22;;;30.30;44.50;;;;;;5051841;28;20251;-60
2023/07/04 12:49:14;;;;;;;0.00;0.00;;;30.40;44.50;;;;;;5051516;28;20181;-60
2023/07/04 12:51:43;;;;;;;0.00;0.00;;;30.20;43.50;;;;;;5051750;28;20213;-60
2023/07/04 12:54:10;;;;;;;0.00;0.00;;;30.30;44.50;;;;;;5051790;28;20185;-59
2023/07/04 12:56:42;;;;;;;0.00;0.00;;;30.30;44.50;;;;;;5051558;28;20304;-60